Time;durP1;ratioP1;P1;durP2;ratioP2;P2;SDS_P1;SDS_P2;PMS_P1;PMS_P2;Temp;Humidity;BMP_temperature;BMP_pressure;BME280_temperature;BME280_humidity;BME280_pressure;Samples;Min_cycle;Max_cycle;Signal;HPM_P1;HPM_P2
2022/03/18 00:00:28;;;;;;;;;;;6.50;56.00;;;;;;5079848;28;19948;-89
2022/03/18 00:02:54;;;;;;;;;;;6.40;55.90;;;;;;5065207;28;19964;-90
2022/03/18 00:05:21;;;;;;;;;;;6.40;55.90;;;;;;5064127;28;19904;-91
2022/03/18 00:07:46;;;;;;;;;;;6.40;55.90;;;;;;5062514;28;20611;-90
2022/03/18 00:10:13;;;;;;;;;;;6.30;55.80;;;;;;5089989;28;19909;-89
2022/03/18 00:12:38;;;;;;;;;;;6.30;55.70;;;;;;5082303;28;20440;-91
2022/03/18 00:15:08;;;;;;;;;;;6.20;55.60;;;;;;5112420;28;19936;-91
2022/03/18 00:17:33;;;;;;;;;;;6.20;55.60;;;;;;5117699;28;19935;-89
2022/03/18 00:19:59;;;;;;;;;;;6.20;55.70;;;;;;5117528;28;19907;-91
2022/03/18 00:22:24;;;;;;;;;;;6.10;55.70;;;;;;5118411;28;20007;-90
2022/03/18 00:24:49;;;;;;;;;;;6.10;55.90;;;;;;5117081;28;20407;-89
2022/03/18 00:27:15;;;;;;;;;;;6.10;56.30;;;;;;5119681;28;20382;-90
2022/03/18 00:29:41;;;;;;;;;;;6.10;56.80;;;;;;5103875;28;19915;-89
2022/03/18 00:32:07;;;;;;;;;;;6.10;56.70;;;;;;5102443;28;19916;-90
2022/03/18 00:34:32;;;;;;;;;;;6.10;56.40;;;;;;5111940;28;19922;-89
2022/03/18 00:36:58;;;;;;;;;;;6.10;56.30;;;;;;5104205;28;19924;-89
2022/03/18 00:39:23;;;;;;;;;;;6.00;56.10;;;;;;5120800;28;19918;-90
2022/03/18 00:41:49;;;;;;;;;;;6.00;56.00;;;;;;5118417;28;19919;-89
2022/03/18 00:44:14;;;;;;;;;;;6.00;55.90;;;;;;5097059;28;19919;-89
2022/03/18 00:46:40;;;;;;;;;;;6.00;55.90;;;;;;5117859;28;20258;-90
2022/03/18 00:52:05;;;;;;;;;;;5.90;55.80;;;;;;5097878;28;19919;-89
2022/03/18 00:54:35;;;;;;;;;;;5.90;55.70;;;;;;5082263;28;19933;-90
2022/03/18 00:57:01;;;;;;;;;;;5.80;55.70;;;;;;5100648;28;20037;-89
2022/03/18 00:59:26;;;;;;;;;;;5.80;55.70;;;;;;5105195;28;20379;-90
2022/03/18 01:01:52;;;;;;;;;;;5.70;55.70;;;;;;5103073;28;20262;-89
2022/03/18 01:04:19;;;;;;;;;;;5.70;55.70;;;;;;5082721;28;19919;-90
2022/03/18 01:06:44;;;;;;;;;;;5.70;55.70;;;;;;5100889;28;19912;-89
2022/03/18 01:09:10;;;;;;;;;;;5.70;55.50;;;;;;5088141;28;19973;-89
2022/03/18 01:11:36;;;;;;;;;;;5.60;55.50;;;;;;5083603;28;19976;-89
2022/03/18 01:14:02;;;;;;;;;;;5.60;55.60;;;;;;5106213;28;19916;-87
2022/03/18 01:16:27;;;;;;;;;;;5.50;55.60;;;;;;5101872;28;19970;-89
2022/03/18 01:18:53;;;;;;;;;;;5.50;55.70;;;;;;5102591;28;19919;-89
2022/03/18 01:21:18;;;;;;;;;;;5.50;55.80;;;;;;5102033;28;19915;-89
2022/03/18 01:23:44;;;;;;;;;;;5.50;55.80;;;;;;5082677;28;19912;-90
2022/03/18 01:26:09;;;;;;;;;;;5.50;55.90;;;;;;5100334;28;20283;-88
2022/03/18 01:28:35;;;;;;;;;;;5.50;55.90;;;;;;5084436;28;19913;-90
2022/03/18 01:31:00;;;;;;;;;;;5.50;55.90;;;;;;5086051;28;19918;-90
2022/03/18 01:33:26;;;;;;;;;;;5.50;55.80;;;;;;5079764;28;20286;-88
2022/03/18 01:35:52;;;;;;;;;;;5.40;56.00;;;;;;5085824;28;19935;-90
2022/03/18 01:38:17;;;;;;;;;;;5.50;56.40;;;;;;5082040;28;19923;-90
2022/03/18 01:40:43;;;;;;;;;;;5.50;56.20;;;;;;5101824;28;20005;-89
2022/03/18 01:43:11;;;;;;;;;;;5.50;56.00;;;;;;5100888;28;19946;-91
2022/03/18 01:45:38;;;;;;;;;;;5.50;56.00;;;;;;5098308;28;19916;-89
2022/03/18 01:48:04;;;;;;;;;;;5.50;56.00;;;;;;5084286;28;20010;-90
2022/03/18 01:50:30;;;;;;;;;;;5.50;56.00;;;;;;5092816;28;19917;-88
2022/03/18 01:52:56;;;;;;;;;;;5.50;55.80;;;;;;5079517;28;19913;-91
2022/03/18 01:55:23;;;;;;;;;;;5.40;55.70;;;;;;5083910;28;19912;-90
2022/03/18 01:57:49;;;;;;;;;;;5.40;55.60;;;;;;5064820;28;19943;-90
2022/03/18 02:00:15;;;;;;;;;;;5.40;55.50;;;;;;5068421;28;20528;-90
2022/03/18 02:02:40;;;;;;;;;;;5.40;55.60;;;;;;5065345;28;19917;-90
2022/03/18 02:05:09;;;;;;;;;;;5.30;55.60;;;;;;5079626;28;19908;-90
2022/03/18 02:07:36;;;;;;;;;;;5.30;55.70;;;;;;5059807;28;19969;-90
2022/03/18 02:10:02;;;;;;;;;;;5.30;55.70;;;;;;5079547;28;19915;-91
2022/03/18 02:12:27;;;;;;;;;;;5.30;55.60;;;;;;5081079;28;19929;-89
2022/03/18 02:14:53;;;;;;;;;;;5.30;55.60;;;;;;5070679;28;19909;-91
2022/03/18 02:17:18;;;;;;;;;;;5.20;55.50;;;;;;5097038;28;19934;-89
2022/03/18 02:19:44;;;;;;;;;;;5.20;55.60;;;;;;5095072;28;20001;-89
2022/03/18 02:22:13;;;;;;;;;;;5.20;55.60;;;;;;5099722;28;20020;-90
2022/03/18 02:24:42;;;;;;;;;;;5.20;55.60;;;;;;5085520;28;19927;-90
2022/03/18 02:27:08;;;;;;;;;;;5.20;55.60;;;;;;5078330;28;20379;-90
2022/03/18 02:29:33;;;;;;;;;;;5.10;55.70;;;;;;5079478;28;19947;-89
2022/03/18 02:32:00;;;;;;;;;;;5.10;55.70;;;;;;5079969;28;19912;-90
2022/03/18 02:34:27;;;;;;;;;;;5.10;55.80;;;;;;5077213;28;19912;-90
2022/03/18 02:36:52;;;;;;;;;;;5.10;55.90;;;;;;5078198;28;19989;-89
2022/03/18 02:39:18;;;;;;;;;;;5.00;55.80;;;;;;5097155;28;19916;-88
2022/03/18 02:41:43;;;;;;;;;;;5.00;55.70;;;;;;5079333;28;20004;-87
2022/03/18 02:44:08;;;;;;;;;;;5.00;55.70;;;;;;5099415;28;19912;-88
2022/03/18 02:46:35;;;;;;;;;;;4.90;55.70;;;;;;5084797;28;19912;-87
2022/03/18 02:49:01;;;;;;;;;;;4.90;55.70;;;;;;5079561;28;19916;-89
2022/03/18 02:51:27;;;;;;;;;;;4.90;55.70;;;;;;5098057;28;20014;-88
2022/03/18 02:53:53;;;;;;;;;;;4.80;55.60;;;;;;5077342;28;19912;-89
2022/03/18 02:56:19;;;;;;;;;;;4.80;55.50;;;;;;5095894;28;20332;-90
2022/03/18 02:58:46;;;;;;;;;;;4.80;55.50;;;;;;5100060;28;19950;-88
2022/03/18 03:01:11;;;;;;;;;;;4.80;55.50;;;;;;5075201;28;20050;-89
2022/03/18 03:03:37;;;;;;;;;;;4.70;55.50;;;;;;5084982;28;19932;-89
2022/03/18 03:08:46;;;;;;;;;;;4.80;56.30;;;;;;5096781;28;19939;-90
2022/03/18 03:11:12;;;;;;;;;;;4.80;57.30;;;;;;5080088;28;20263;-90
2022/03/18 03:13:37;;;;;;;;;;;4.80;57.40;;;;;;5096194;28;19928;-89
2022/03/18 03:16:03;;;;;;;;;;;4.80;57.20;;;;;;5099109;28;19908;-88
2022/03/18 03:18:29;;;;;;;;;;;4.90;56.90;;;;;;5076499;28;19921;-90
2022/03/18 03:20:57;;;;;;;;;;;4.80;56.80;;;;;;5095390;28;20925;-89
2022/03/18 03:23:26;;;;;;;;;;;4.80;56.60;;;;;;5097944;28;19926;-89
2022/03/18 03:25:54;;;;;;;;;;;4.70;56.40;;;;;;5081181;28;19900;-90
2022/03/18 03:28:21;;;;;;;;;;;4.70;56.30;;;;;;5078311;28;19904;-90
2022/03/18 03:30:47;;;;;;;;;;;4.60;56.10;;;;;;5082135;28;20393;-88
2022/03/18 03:33:12;;;;;;;;;;;4.60;56.10;;;;;;5075839;28;20420;-88
2022/03/18 03:35:38;;;;;;;;;;;4.60;55.90;;;;;;5085008;28;19918;-89
2022/03/18 03:38:04;;;;;;;;;;;4.50;55.90;;;;;;5075301;28;20019;-89
2022/03/18 03:40:29;;;;;;;;;;;4.50;55.80;;;;;;5096689;28;20282;-90
2022/03/18 03:42:55;;;;;;;;;;;4.50;55.80;;;;;;5095938;28;19951;-89
2022/03/18 03:45:20;;;;;;;;;;;4.40;55.70;;;;;;5094180;28;19994;-89
2022/03/18 03:47:46;;;;;;;;;;;4.40;55.70;;;;;;5078608;28;19965;-90
2022/03/18 03:50:12;;;;;;;;;;;4.30;55.70;;;;;;5078022;28;19923;-90
2022/03/18 03:52:37;;;;;;;;;;;4.30;55.70;;;;;;5096813;28;20476;-88
2022/03/18 03:55:03;;;;;;;;;;;4.30;55.70;;;;;;5079792;28;20248;-90
2022/03/18 03:57:29;;;;;;;;;;;4.20;55.70;;;;;;5096313;28;19939;-90
2022/03/18 03:59:54;;;;;;;;;;;4.20;55.60;;;;;;5076435;28;19912;-90
2022/03/18 04:02:20;;;;;;;;;;;4.20;55.50;;;;;;5083181;28;19927;-90
2022/03/18 04:04:49;;;;;;;;;;;4.10;55.50;;;;;;5089266;28;19904;-89
2022/03/18 04:07:15;;;;;;;;;;;4.00;55.50;;;;;;5098671;28;19923;-90
2022/03/18 04:09:40;;;;;;;;;;;4.00;55.50;;;;;;5084476;28;20011;-89
2022/03/18 04:12:06;;;;;;;;;;;4.00;55.60;;;;;;5099340;28;19920;-89
2022/03/18 04:14:31;;;;;;;;;;;4.00;55.80;;;;;;5089233;28;19924;-89
2022/03/18 04:16:57;;;;;;;;;;;4.00;55.60;;;;;;5100198;28;19934;-89
2022/03/18 04:19:23;;;;;;;;;;;4.00;55.60;;;;;;5118161;28;19908;-90
2022/03/18 04:21:49;;;;;;;;;;;4.00;55.60;;;;;;5099234;28;19916;-90
2022/03/18 04:24:14;;;;;;;;;;;3.90;55.60;;;;;;5102246;28;20254;-89
2022/03/18 04:26:40;;;;;;;;;;;3.90;55.60;;;;;;5118180;28;19915;-89
2022/03/18 04:29:08;;;;;;;;;;;3.90;55.50;;;;;;5118810;28;19908;-90
2022/03/18 04:31:33;;;;;;;;;;;3.90;55.40;;;;;;5099816;28;20419;-89
2022/03/18 04:34:00;;;;;;;;;;;3.80;55.40;;;;;;5060338;28;19909;-91
2022/03/18 04:36:26;;;;;;;;;;;3.80;55.40;;;;;;5082992;28;19927;-90
2022/03/18 04:38:52;;;;;;;;;;;3.80;55.50;;;;;;5062119;28;20244;-90
2022/03/18 04:41:18;;;;;;;;;;;3.80;55.50;;;;;;5075482;28;19912;-90
2022/03/18 04:43:43;;;;;;;;;;;3.70;55.50;;;;;;5077032;28;19963;-88
2022/03/18 04:46:09;;;;;;;;;;;3.70;55.40;;;;;;5058331;28;19999;-89
2022/03/18 04:48:34;;;;;;;;;;;3.70;55.40;;;;;;5077543;28;20288;-90
2022/03/18 04:51:00;;;;;;;;;;;3.70;55.90;;;;;;5089502;28;19908;-89
2022/03/18 04:53:26;;;;;;;;;;;3.70;56.30;;;;;;5082126;28;19947;-90
2022/03/18 04:55:51;;;;;;;;;;;3.70;56.00;;;;;;5080142;28;19916;-89
2022/03/18 04:58:20;;;;;;;;;;;3.70;55.70;;;;;;5083526;28;20057;-91
2022/03/18 05:00:48;;;;;;;;;;;3.70;55.40;;;;;;5080581;28;19915;-90
2022/03/18 05:03:14;;;;;;;;;;;3.70;55.30;;;;;;5083865;28;20386;-90
2022/03/18 05:05:39;;;;;;;;;;;3.70;55.20;;;;;;5102444;28;19912;-90
2022/03/18 05:08:05;;;;;;;;;;;3.70;55.10;;;;;;5101557;28;19971;-89
2022/03/18 05:10:30;;;;;;;;;;;3.60;55.20;;;;;;5104567;28;19912;-90
2022/03/18 05:12:56;;;;;;;;;;;3.60;55.20;;;;;;5079794;28;20506;-90
2022/03/18 05:15:23;;;;;;;;;;;3.60;55.20;;;;;;5084176;28;19912;-90
2022/03/18 05:17:50;;;;;;;;;;;3.50;55.10;;;;;;5106880;28;20332;-91
2022/03/18 05:20:16;;;;;;;;;;;3.50;55.30;;;;;;5087743;28;20287;-91
2022/03/18 05:22:42;;;;;;;;;;;3.50;56.00;;;;;;5083198;28;19916;-89
2022/03/18 05:25:08;;;;;;;;;;;3.50;55.90;;;;;;5100539;28;19912;-91
2022/03/18 05:27:33;;;;;;;;;;;3.50;55.60;;;;;;5081700;28;19916;-91
2022/03/18 05:29:59;;;;;;;;;;;3.50;55.50;;;;;;5081707;28;19908;-91
2022/03/18 05:32:24;;;;;;;;;;;3.50;55.50;;;;;;5079625;28;19916;-89
2022/03/18 05:34:49;;;;;;;;;;;3.50;55.90;;;;;;5080093;28;19915;-91
2022/03/18 05:37:17;;;;;;;;;;;3.60;56.20;;;;;;5096989;28;19924;-90
2022/03/18 05:39:44;;;;;;;;;;;3.60;56.20;;;;;;5083480;28;19912;-90
2022/03/18 05:42:09;;;;;;;;;;;3.60;56.10;;;;;;5082845;28;19987;-91
2022/03/18 05:44:35;;;;;;;;;;;3.70;56.10;;;;;;5082571;28;19915;-89
2022/03/18 05:47:01;;;;;;;;;;;3.70;56.10;;;;;;5079470;28;19920;-89
2022/03/18 05:49:26;;;;;;;;;;;3.70;56.10;;;;;;5102814;28;20105;-89
2022/03/18 05:51:51;;;;;;;;;;;3.70;56.20;;;;;;5103350;28;19916;-91
2022/03/18 05:54:17;;;;;;;;;;;3.80;56.20;;;;;;5080389;28;19991;-90
2022/03/18 05:56:55;;;;;;;;;;;3.80;56.40;;;;;;5079370;28;19946;-91
2022/03/18 05:59:24;;;;;;;;;;;3.90;56.50;;;;;;5095305;28;19908;-89
2022/03/18 06:01:51;;;;;;;;;;;3.90;56.50;;;;;;5076275;28;19923;-89
2022/03/18 06:04:16;;;;;;;;;;;4.00;56.30;;;;;;5061348;28;20379;-91
2022/03/18 06:06:43;;;;;;;;;;;4.00;56.20;;;;;;5063576;28;19912;-90
2022/03/18 06:11:54;;;;;;;;;;;4.00;56.30;;;;;;5081789;28;19934;-90
2022/03/18 06:14:20;;;;;;;;;;;4.10;56.50;;;;;;5076066;28;19919;-89
2022/03/18 06:16:47;;;;;;;;;;;4.20;57.00;;;;;;5103108;28;20020;-91
2022/03/18 06:19:13;;;;;;;;;;;4.40;58.20;;;;;;5102001;28;20018;-89
2022/03/18 06:21:42;;;;;;;;;;;4.70;58.90;;;;;;5121027;28;20258;-90
2022/03/18 06:24:09;;;;;;;;;;;5.00;59.40;;;;;;5118619;28;19912;-89
2022/03/18 06:26:35;;;;;;;;;;;5.20;59.80;;;;;;5100929;28;19954;-90
2022/03/18 06:29:01;;;;;;;;;;;5.50;60.10;;;;;;5096724;28;19912;-91
2022/03/18 06:31:27;;;;;;;;;;;5.80;60.40;;;;;;5098189;28;19907;-90
2022/03/18 06:33:54;;;;;;;;;;;6.10;60.60;;;;;;5117739;28;19912;-91
2022/03/18 06:36:20;;;;;;;;;;;6.40;60.60;;;;;;5099916;28;20023;-89
2022/03/18 06:38:45;;;;;;;;;;;6.60;60.60;;;;;;5111391;28;19983;-88
2022/03/18 06:41:11;;;;;;;;;;;6.90;60.60;;;;;;5093962;28;20294;-89
2022/03/18 06:43:36;;;;;;;;;;;7.20;60.80;;;;;;5098500;28;19982;-89
2022/03/18 06:46:02;;;;;;;;;;;7.50;61.10;;;;;;5080255;28;19910;-90
2022/03/18 06:48:28;;;;;;;;;;;7.80;62.00;;;;;;5078270;28;19916;-90
2022/03/18 06:50:53;;;;;;;;;;;8.20;63.30;;;;;;5099172;28;19920;-89
2022/03/18 06:53:19;;;;;;;;;;;8.80;64.30;;;;;;5094757;28;19916;-88
2022/03/18 06:55:45;;;;;;;;;;;9.30;65.00;;;;;;5075471;28;19920;-91
2022/03/18 06:58:10;;;;;;;;;;;9.80;65.40;;;;;;5097377;28;19924;-89
2022/03/18 07:00:37;;;;;;;;;;;10.30;65.90;;;;;;5085672;28;19974;-90
2022/03/18 07:03:03;;;;;;;;;;;10.90;66.10;;;;;;5054893;28;20321;-89
2022/03/18 07:05:29;;;;;;;;;;;11.40;66.30;;;;;;5072045;28;20018;-88
2022/03/18 07:07:55;;;;;;;;;;;12.00;66.30;;;;;;5053308;28;19916;-89
2022/03/18 07:10:20;;;;;;;;;;;12.60;66.60;;;;;;5054203;28;19917;-89
2022/03/18 07:12:46;;;;;;;;;;;13.20;66.00;;;;;;5053958;28;19974;-89
2022/03/18 07:15:11;;;;;;;;;;;13.80;65.80;;;;;;5102565;28;19920;-88
2022/03/18 07:17:55;;;;;;;;;;;14.30;65.60;;;;;;5065434;28;19927;-90
2022/03/18 07:20:22;;;;;;;;;;;14.90;65.50;;;;;;5081833;28;19912;-89
2022/03/18 07:23:00;;;;;;;;;;;15.50;65.10;;;;;;5086855;28;19931;-90
2022/03/18 07:25:25;;;;;;;;;;;16.20;64.60;;;;;;5091480;28;19912;-90
2022/03/18 07:27:51;;;;;;;;;;;16.70;64.10;;;;;;5074473;28;19912;-91
2022/03/18 07:30:16;;;;;;;;;;;17.20;63.10;;;;;;5071474;28;19920;-89
2022/03/18 07:32:42;;;;;;;;;;;17.70;62.30;;;;;;5081140;28;19920;-90
2022/03/18 07:35:08;;;;;;;;;;;18.00;61.80;;;;;;5076153;28;19937;-90
2022/03/18 07:37:33;;;;;;;;;;;18.30;61.30;;;;;;5078118;28;20057;-91
2022/03/18 07:39:59;;;;;;;;;;;18.70;61.00;;;;;;5096466;28;19920;-91
2022/03/18 07:42:24;;;;;;;;;;;19.00;60.60;;;;;;5098480;28;20278;-90
2022/03/18 07:44:50;;;;;;;;;;;19.30;60.50;;;;;;5068188;28;19956;-92
2022/03/18 07:47:18;;;;;;;;;;;19.60;60.50;;;;;;5062073;28;19921;-91
2022/03/18 07:49:47;;;;;;;;;;;19.90;60.10;;;;;;5080768;28;19920;-91
2022/03/18 07:52:13;;;;;;;;;;;20.20;59.40;;;;;;5072587;28;19946;-91
2022/03/18 07:54:39;;;;;;;;;;;20.40;59.50;;;;;;5079303;28;20362;-89
2022/03/18 07:57:04;;;;;;;;;;;20.70;59.50;;;;;;5077647;28;20011;-90
2022/03/18 07:59:30;;;;;;;;;;;20.90;59.20;;;;;;5098875;28;20278;-91
2022/03/18 08:02:00;;;;;;;;;;;21.00;58.90;;;;;;5103260;28;19965;-89
2022/03/18 08:04:31;;;;;;;;;;;21.30;59.00;;;;;;5097360;28;19969;-87
2022/03/18 08:06:57;;;;;;;;;;;21.50;59.50;;;;;;5101548;28;19963;-89
2022/03/18 08:09:23;;;;;;;;;;;21.80;60.10;;;;;;5101491;28;19918;-87
2022/03/18 08:11:48;;;;;;;;;;;22.10;58.60;;;;;;5061030;28;19921;-89
2022/03/18 08:14:14;;;;;;;;;;;22.40;59.10;;;;;;5063594;28;20286;-89
2022/03/18 08:16:39;;;;;;;;;;;22.80;60.20;;;;;;5079872;28;19927;-87
2022/03/18 08:19:05;;;;;;;;;;;23.20;59.10;;;;;;5098665;28;19912;-88
2022/03/18 08:21:32;;;;;;;;;;;23.70;58.30;;;;;;5102933;28;19920;-89
2022/03/18 08:23:58;;;;;;;;;;;24.10;57.70;;;;;;5079840;28;19922;-88
2022/03/18 08:26:23;;;;;;;;;;;24.50;58.40;;;;;;5078207;28;20369;-88
2022/03/18 08:28:49;;;;;;;;;;;24.80;57.40;;;;;;5099678;28;20392;-88
2022/03/18 08:31:15;;;;;;;;;;;25.20;55.30;;;;;;5078082;28;19918;-87
2022/03/18 08:33:40;;;;;;;;;;;25.40;54.50;;;;;;5075590;28;20459;-88
2022/03/18 08:36:06;;;;;;;;;;;25.70;52.50;;;;;;5101390;28;19998;-88
2022/03/18 08:38:31;;;;;;;;;;;25.80;51.70;;;;;;5104805;28;19924;-89
2022/03/18 08:40:57;;;;;;;;;;;26.10;53.10;;;;;;5058025;28;20381;-89
2022/03/18 08:43:23;;;;;;;;;;;26.30;51.90;;;;;;5078530;28;19936;-88
2022/03/18 08:45:50;;;;;;;;;;;26.50;52.60;;;;;;5078241;28;20605;-88
2022/03/18 08:48:16;;;;;;;;;;;26.80;52.90;;;;;;5078349;28;19917;-89
2022/03/18 08:50:42;;;;;;;;;;;27.00;53.40;;;;;;5074117;28;19920;-89
2022/03/18 08:53:10;;;;;;;;;;;27.30;53.70;;;;;;5077572;28;19932;-89
2022/03/18 08:55:36;;;;;;;;;;;27.50;52.30;;;;;;5059242;28;19915;-88
2022/03/18 08:58:01;;;;;;;;;;;27.80;53.30;;;;;;5060522;28;20311;-90
2022/03/18 09:00:27;;;;;;;;;;;28.00;53.70;;;;;;5058101;28;19916;-90
2022/03/18 09:02:53;;;;;;;;;;;28.30;53.30;;;;;;5077039;28;19968;-92
2022/03/18 09:05:18;;;;;;;;;;;28.30;52.80;;;;;;5080687;28;19919;-91
2022/03/18 09:07:44;;;;;;;;;;;28.30;50.10;;;;;;5057718;28;19943;-88
2022/03/18 09:10:12;;;;;;;;;;;28.40;50.60;;;;;;5058914;28;19912;-90
2022/03/18 09:12:44;;;;;;;;;;;28.50;50.20;;;;;;5062357;28;19936;-89
2022/03/18 09:15:09;;;;;;;;;;;28.70;49.90;;;;;;5110702;28;19919;-89
2022/03/18 09:17:35;;;;;;;;;;;28.90;47.30;;;;;;5102445;28;19928;-89
2022/03/18 09:20:00;;;;;;;;;;;29.10;46.20;;;;;;5117273;28;19939;-90
2022/03/18 09:22:26;;;;;;;;;;;29.10;45.00;;;;;;5115365;28;20375;-90
2022/03/18 09:24:53;;;;;;;;;;;29.10;41.20;;;;;;5115243;28;19912;-90
2022/03/18 09:27:19;;;;;;;;;;;29.10;41.80;;;;;;5116841;28;19920;-89
2022/03/18 09:29:45;;;;;;;;;;;29.10;41.00;;;;;;5100706;28;20448;-89
2022/03/18 09:32:10;;;;;;;;;;;29.10;41.50;;;;;;5101069;28;19920;-89
2022/03/18 09:34:36;;;;;;;;;;;29.10;40.60;;;;;;5102660;28;19955;-88
2022/03/18 09:37:02;;;;;;;;;;;29.20;41.50;;;;;;5076915;28;19928;-88
2022/03/18 09:39:28;;;;;;;;;;;29.30;42.30;;;;;;5095407;28;19912;-89
2022/03/18 09:41:54;;;;;;;;;;;29.30;41.20;;;;;;5078556;28;19976;-89
2022/03/18 09:44:20;;;;;;;;;;;29.30;38.90;;;;;;5101755;28;19912;-90
2022/03/18 09:46:55;;;;;;;;;;;29.20;38.40;;;;;;5107787;28;19916;-89
2022/03/18 09:49:22;;;;;;;;;;;29.10;36.30;;;;;;5092370;28;19958;-89
2022/03/18 09:51:48;;;;;;;;;;;29.00;35.50;;;;;;5064258;28;19932;-89
2022/03/18 09:54:14;;;;;;;;;;;29.00;35.00;;;;;;5079223;28;19912;-90
2022/03/18 09:56:44;;;;;;;;;;;29.10;35.00;;;;;;5060018;28;19928;-89
2022/03/18 09:59:09;;;;;;;;;;;29.30;32.70;;;;;;5058987;28;19908;-90
2022/03/18 10:01:35;;;;;;;;;;;29.20;32.10;;;;;;5060539;28;19963;-90
2022/03/18 10:04:07;;;;;;;;;;;29.10;31.90;;;;;;5057979;28;20630;-89
2022/03/18 10:06:34;;;;;;;;;;;29.10;31.90;;;;;;5059481;28;19920;-90
2022/03/18 10:09:00;;;;;;;;;;;29.10;30.50;;;;;;5067362;28;19908;-87
2022/03/18 10:11:27;;;;;;;;;;;29.00;30.70;;;;;;5076501;28;19945;-90
2022/03/18 10:13:56;;;;;;;;;;;29.10;30.90;;;;;;5064360;28;19927;-91
2022/03/18 10:16:41;;;;;;;;;;;29.30;30.90;;;;;;5099110;28;19912;-89
2022/03/18 10:19:21;;;;;;;;;;;29.50;29.30;;;;;;5119386;28;20390;-89
2022/03/18 10:21:56;;;;;;;;;;;29.50;27.80;;;;;;5117254;28;19969;-89
2022/03/18 10:24:31;;;;;;;;;;;29.50;27.20;;;;;;5118767;28;19980;-89
2022/03/18 10:27:12;;;;;;;;;;;29.30;26.70;;;;;;5102406;28;19967;-90
2022/03/18 10:29:41;;;;;;;;;;;29.30;25.90;;;;;;5097807;28;19912;-88
2022/03/18 10:32:08;;;;;;;;;;;29.20;26.00;;;;;;5099602;28;19931;-89
2022/03/18 10:37:23;;;;;;;;;;;29.30;26.40;;;;;;5114902;28;20003;-90
2022/03/18 10:39:52;;;;;;;;;;;29.30;26.80;;;;;;5114566;28;19911;-89
2022/03/18 10:42:20;;;;;;;;;;;29.50;26.70;;;;;;5094809;28;19984;-90
2022/03/18 10:44:48;;;;;;;;;;;29.50;25.40;;;;;;5114745;28;19915;-90
2022/03/18 10:47:28;;;;;;;;;;;29.40;24.70;;;;;;5113089;28;19927;-89
2022/03/18 10:50:11;;;;;;;;;;;29.30;25.30;;;;;;5096893;28;19919;-89
2022/03/18 10:52:40;;;;;;;;;;;29.50;25.90;;;;;;5079496;28;20010;-91
2022/03/18 10:55:19;;;;;;;;;;;29.60;25.20;;;;;;5078449;28;20030;-89
2022/03/18 10:57:49;;;;;;;;;;;29.70;24.80;;;;;;5099129;28;19928;-90
2022/03/18 11:00:15;;;;;;;;;;;29.70;25.10;;;;;;5080306;28;19912;-91
2022/03/18 11:02:42;;;;;;;;;;;29.80;24.90;;;;;;5077701;28;19937;-89
2022/03/18 11:05:08;;;;;;;;;;;29.90;25.20;;;;;;5080359;28;19931;-90
2022/03/18 11:07:41;;;;;;;;;;;30.00;24.20;;;;;;5093719;28;19920;-91
2022/03/18 11:12:38;;;;;;;;;;;29.70;23.10;;;;;;5108656;22;19970;-89
2022/03/18 11:15:04;;;;;;;;;;;29.40;22.40;;;;;;5092176;28;19944;-91
2022/03/18 11:17:30;;;;;;;;;;;29.20;22.10;;;;;;5077589;28;19928;-89
2022/03/18 11:19:59;;;;;;;;;;;29.00;22.60;;;;;;5097054;28;19919;-91
2022/03/18 11:22:25;;;;;;;;;;;28.90;22.60;;;;;;5071495;28;19995;-89
2022/03/18 11:24:52;;;;;;;;;;;28.90;22.30;;;;;;5053803;28;19913;-91
2022/03/18 11:27:17;;;;;;;;;;;28.80;21.60;;;;;;5073215;28;19920;-89
2022/03/18 11:29:43;;;;;;;;;;;28.70;22.10;;;;;;5051417;28;19934;-89
2022/03/18 11:32:20;;;;;;;;;;;28.70;21.70;;;;;;5053192;28;19935;-89
2022/03/18 11:34:46;;;;;;;;;;;28.50;21.90;;;;;;5100491;28;20031;-91
2022/03/18 11:37:11;;;;;;;;;;;28.40;21.40;;;;;;5093149;28;19928;-91
2022/03/18 11:39:38;;;;;;;;;;;28.30;21.60;;;;;;5113882;28;19915;-90
2022/03/18 11:42:09;;;;;;;;;;;28.30;22.10;;;;;;5111327;28;19926;-89
2022/03/18 11:44:56;;;;;;;;;;;28.30;22.20;;;;;;5124221;28;19926;-89
2022/03/18 11:47:28;;;;;;;;;;;28.20;21.60;;;;;;5108778;28;19920;-90
2022/03/18 11:49:54;;;;;;;;;;;28.10;21.90;;;;;;5126656;28;19908;-91
2022/03/18 11:52:19;;;;;;;;;;;28.00;21.90;;;;;;5127294;28;19912;-90
2022/03/18 11:55:01;;;;;;;;;;;27.90;21.80;;;;;;5078242;28;19920;-90
2022/03/18 11:57:31;;;;;;;;;;;27.80;21.20;;;;;;5078485;28;19924;-87
2022/03/18 12:00:00;;;;;;;;;;;27.50;21.60;;;;;;5083250;28;20498;-88
2022/03/18 12:02:32;;;;;;;;;;;27.40;22.00;;;;;;5078760;28;19923;-88
2022/03/18 12:04:58;;;;;;;;;;;27.30;22.00;;;;;;5073951;28;19944;-91
2022/03/18 12:07:34;;;;;;;;;;;27.30;22.00;;;;;;5098345;28;20248;-88
2022/03/18 12:10:03;;;;;;;;;;;27.10;21.70;;;;;;5090119;28;19923;-89
2022/03/18 12:12:34;;;;;;;;;;;26.90;22.30;;;;;;5075430;28;19977;-90
2022/03/18 12:15:04;;;;;;;;;;;27.00;22.40;;;;;;5076752;28;19957;-88
2022/03/18 12:17:30;;;;;;;;;;;26.90;22.20;;;;;;5080901;28;19980;-88
2022/03/18 12:19:56;;;;;;;;;;;26.80;22.40;;;;;;5074734;28;19916;-89
2022/03/18 12:22:23;;;;;;;;;;;26.90;23.00;;;;;;5093521;28;19962;-89
2022/03/18 12:24:50;;;;;;;;;;;27.00;22.60;;;;;;5075020;28;19923;-88
2022/03/18 12:27:16;;;;;;;;;;;26.90;22.80;;;;;;5093934;28;19947;-90
2022/03/18 12:29:41;;;;;;;;;;;26.90;22.70;;;;;;5095667;28;19938;-88
2022/03/18 12:32:09;;;;;;;;;;;26.80;22.80;;;;;;5092909;28;20434;-88
2022/03/18 12:34:35;;;;;;;;;;;26.90;23.30;;;;;;5090145;28;19984;-90
2022/03/18 12:37:04;;;;;;;;;;;27.00;22.80;;;;;;5081018;28;20359;-88
2022/03/18 12:39:29;;;;;;;;;;;26.90;22.60;;;;;;5094808;28;20014;-88
2022/03/18 12:42:09;;;;;;;;;;;26.70;22.60;;;;;;5093161;28;20006;-88
2022/03/18 12:44:34;;;;;;;;;;;26.40;22.80;;;;;;5096078;28;20441;-88
2022/03/18 12:47:00;;;;;;;;;;;26.20;23.10;;;;;;5095087;28;19959;-88
2022/03/18 12:49:36;;;;;;;;;;;26.00;23.30;;;;;;5081030;28;19959;-89
2022/03/18 12:52:02;;;;;;;;;;;25.90;23.40;;;;;;5081684;28;20347;-88
2022/03/18 12:54:28;;;;;;;;;;;25.80;23.60;;;;;;5093701;28;19919;-90
2022/03/18 12:56:54;;;;;;;;;;;25.60;23.60;;;;;;5082263;28;19924;-89
2022/03/18 12:59:20;;;;;;;;;;;25.50;23.80;;;;;;5097866;28;19982;-88
2022/03/18 13:01:55;;;;;;;;;;;25.50;24.10;;;;;;5092254;28;19912;-89
2022/03/18 13:04:21;;;;;;;;;;;25.60;24.30;;;;;;5093783;28;19920;-88
2022/03/18 13:06:51;;;;;;;;;;;25.50;23.90;;;;;;5074617;28;19965;-88
2022/03/18 13:09:18;;;;;;;;;;;25.40;24.20;;;;;;5064097;28;20283;-90
2022/03/18 13:11:44;;;;;;;;;;;25.40;24.20;;;;;;5063200;28;19927;-88
2022/03/18 13:14:10;;;;;;;;;;;25.20;24.20;;;;;;5094043;28;19912;-89
2022/03/18 13:16:36;;;;;;;;;;;25.00;24.30;;;;;;5055352;28;19927;-89
2022/03/18 13:19:03;;;;;;;;;;;24.80;24.60;;;;;;5074065;28;19920;-88
2022/03/18 13:21:37;;;;;;;;;;;24.70;24.50;;;;;;5059613;28;19932;-90
2022/03/18 13:24:03;;;;;;;;;;;24.50;24.50;;;;;;5077649;28;20023;-88
2022/03/18 13:26:29;;;;;;;;;;;24.20;24.70;;;;;;5058639;28;19955;-90
2022/03/18 13:28:54;;;;;;;;;;;23.80;25.10;;;;;;5082298;28;19924;-91
2022/03/18 13:34:04;;;;;;;;;;;22.50;26.30;;;;;;5092380;28;20741;-90
2022/03/18 13:36:35;;;;;;;;;;;21.90;27.10;;;;;;5077866;28;19912;-91
2022/03/18 13:39:03;;;;;;;;;;;21.40;27.90;;;;;;5077912;28;20003;-91
2022/03/18 13:41:48;;;;;;;;;;;21.00;28.60;;;;;;5076968;28;19923;-90
2022/03/18 13:44:18;;;;;;;;;;;20.60;29.10;;;;;;5099159;28;19936;-90
2022/03/18 13:47:00;;;;;;;;;;;20.30;29.80;;;;;;5080817;28;20096;-90
2022/03/18 13:49:26;;;;;;;;;;;20.00;30.40;;;;;;5102432;28;19916;-91
2022/03/18 13:51:59;;;;;;;;;;;19.70;30.90;;;;;;5079030;28;19916;-90
2022/03/18 13:54:25;;;;;;;;;;;19.60;31.20;;;;;;5095025;28;19987;-89
2022/03/18 13:56:58;;;;;;;;;;;19.40;31.50;;;;;;5099429;28;19955;-89
2022/03/18 13:59:24;;;;;;;;;;;19.30;31.90;;;;;;5096020;28;19923;-90
2022/03/18 14:02:08;;;;;;;;;;;19.30;32.10;;;;;;5079017;28;19951;-88
2022/03/18 14:04:40;;;;;;;;;;;19.20;32.40;;;;;;5097106;28;19923;-90
2022/03/18 14:07:05;;;;;;;;;;;19.10;32.40;;;;;;5078132;28;19980;-90
2022/03/18 14:09:31;;;;;;;;;;;19.00;32.70;;;;;;5077189;28;20267;-88
2022/03/18 14:12:10;;;;;;;;;;;19.00;32.80;;;;;;5076098;28;19966;-89
2022/03/18 14:14:36;;;;;;;;;;;19.00;32.90;;;;;;5077568;28;19931;-90
2022/03/18 14:17:06;;;;;;;;;;;18.90;33.10;;;;;;5082214;28;19927;-88
2022/03/18 14:19:40;;;;;;;;;;;18.90;33.20;;;;;;5095314;28;19986;-90
2022/03/18 14:22:06;;;;;;;;;;;18.80;33.20;;;;;;5092987;28;19965;-88
2022/03/18 14:24:31;;;;;;;;;;;18.80;33.10;;;;;;5094836;28;19916;-90
2022/03/18 14:26:57;;;;;;;;;;;18.80;33.20;;;;;;5107590;28;19908;-90
2022/03/18 14:29:31;;;;;;;;;;;18.80;33.30;;;;;;5089031;28;19927;-91
2022/03/18 14:31:57;;;;;;;;;;;18.70;33.40;;;;;;5102124;28;19920;-90
2022/03/18 14:34:22;;;;;;;;;;;18.70;33.60;;;;;;5113070;28;19993;-89
2022/03/18 14:36:48;;;;;;;;;;;18.70;33.80;;;;;;5120585;28;19958;-91
2022/03/18 14:39:13;;;;;;;;;;;18.70;33.90;;;;;;5115546;28;19919;-89